sensor_id;sensor_type;location;lat;lon;timestamp;P1;durP1;ratioP1;P2;durP2;ratioP2
24650;SDS011;12783;48.824;8.662;2023-11-19T00:02:16;0.75;;;0.30;;
24650;SDS011;12783;48.824;8.662;2023-11-19T00:04:43;0.55;;;0.10;;
24650;SDS011;12783;48.824;8.662;2023-11-19T00:07:10;0.10;;;0.10;;
24650;SDS011;12783;48.824;8.662;2023-11-19T00:09:39;0.10;;;0.10;;
24650;SDS011;12783;48.824;8.662;2023-11-19T00:12:07;0.13;;;0.13;;
24650;SDS011;12783;48.824;8.662;2023-11-19T00:14:34;0.50;;;0.30;;
24650;SDS011;12783;48.824;8.662;2023-11-19T00:17:01;0.13;;;0.13;;
24650;SDS011;12783;48.824;8.662;2023-11-19T00:19:27;0.20;;;0.20;;
24650;SDS011;12783;48.824;8.662;2023-11-19T00:21:54;0.05;;;0.00;;
24650;SDS011;12783;48.824;8.662;2023-11-19T00:24:21;2.40;;;0.20;;
24650;SDS011;12783;48.824;8.662;2023-11-19T00:26:48;0.00;;;0.00;;
24650;SDS011;12783;48.824;8.662;2023-11-19T00:29:16;0.10;;;0.08;;
24650;SDS011;12783;48.824;8.662;2023-11-19T00:31:45;0.00;;;0.00;;
24650;SDS011;12783;48.824;8.662;2023-11-19T00:34:12;0.10;;;0.10;;
24650;SDS011;12783;48.824;8.662;2023-11-19T00:36:39;0.20;;;0.08;;
24650;SDS011;12783;48.824;8.662;2023-11-19T00:39:06;0.32;;;0.20;;
24650;SDS011;12783;48.824;8.662;2023-11-19T00:41:33;0.10;;;0.10;;
24650;SDS011;12783;48.824;8.662;2023-11-19T00:44:00;0.38;;;0.10;;
24650;SDS011;12783;48.824;8.662;2023-11-19T00:46:27;0.10;;;0.10;;
24650;SDS011;12783;48.824;8.662;2023-11-19T00:48:54;0.20;;;0.17;;
24650;SDS011;12783;48.824;8.662;2023-11-19T00:51:21;0.30;;;0.20;;
24650;SDS011;12783;48.824;8.662;2023-11-19T00:53:48;0.75;;;0.10;;
24650;SDS011;12783;48.824;8.662;2023-11-19T00:56:14;0.40;;;0.10;;
24650;SDS011;12783;48.824;8.662;2023-11-19T00:58:43;0.10;;;0.10;;
24650;SDS011;12783;48.824;8.662;2023-11-19T01:01:11;0.10;;;0.10;;
24650;SDS011;12783;48.824;8.662;2023-11-19T01:03:38;0.20;;;0.20;;
24650;SDS011;12783;48.824;8.662;2023-11-19T01:06:05;0.08;;;0.08;;
24650;SDS011;12783;48.824;8.662;2023-11-19T01:08:34;0.10;;;0.10;;
24650;SDS011;12783;48.824;8.662;2023-11-19T01:11:04;0.20;;;0.20;;
24650;SDS011;12783;48.824;8.662;2023-11-19T01:13:30;0.25;;;0.03;;
24650;SDS011;12783;48.824;8.662;2023-11-19T01:15:57;0.28;;;0.10;;
24650;SDS011;12783;48.824;8.662;2023-11-19T01:18:24;0.10;;;0.10;;
24650;SDS011;12783;48.824;8.662;2023-11-19T01:20:51;0.52;;;0.25;;
24650;SDS011;12783;48.824;8.662;2023-11-19T01:23:18;0.17;;;0.17;;
24650;SDS011;12783;48.824;8.662;2023-11-19T01:25:45;0.10;;;0.10;;
24650;SDS011;12783;48.824;8.662;2023-11-19T01:28:12;0.10;;;0.10;;
24650;SDS011;12783;48.824;8.662;2023-11-19T01:30:38;0.10;;;0.10;;
24650;SDS011;12783;48.824;8.662;2023-11-19T01:33:05;0.00;;;0.00;;
24650;SDS011;12783;48.824;8.662;2023-11-19T01:35:33;3.47;;;0.10;;
24650;SDS011;12783;48.824;8.662;2023-11-19T01:38:01;0.00;;;0.00;;
24650;SDS011;12783;48.824;8.662;2023-11-19T01:40:27;0.28;;;0.13;;
24650;SDS011;12783;48.824;8.662;2023-11-19T01:42:54;2.22;;;0.03;;
24650;SDS011;12783;48.824;8.662;2023-11-19T01:45:23;0.03;;;0.00;;
24650;SDS011;12783;48.824;8.662;2023-11-19T01:47:55;0.17;;;0.17;;
24650;SDS011;12783;48.824;8.662;2023-11-19T01:50:23;0.10;;;0.00;;
24650;SDS011;12783;48.824;8.662;2023-11-19T01:52:54;0.13;;;0.10;;
24650;SDS011;12783;48.824;8.662;2023-11-19T01:55:24;0.00;;;0.00;;
24650;SDS011;12783;48.824;8.662;2023-11-19T01:57:54;0.00;;;0.00;;
24650;SDS011;12783;48.824;8.662;2023-11-19T02:00:25;0.03;;;0.00;;
24650;SDS011;12783;48.824;8.662;2023-11-19T02:02:52;0.00;;;0.00;;
24650;SDS011;12783;48.824;8.662;2023-11-19T02:05:21;0.00;;;0.00;;
24650;SDS011;12783;48.824;8.662;2023-11-19T02:07:49;0.00;;;0.00;;
24650;SDS011;12783;48.824;8.662;2023-11-19T02:10:17;0.00;;;0.00;;
24650;SDS011;12783;48.824;8.662;2023-11-19T02:12:45;0.05;;;0.05;;
24650;SDS011;12783;48.824;8.662;2023-11-19T02:15:12;0.20;;;0.20;;
24650;SDS011;12783;48.824;8.662;2023-11-19T02:17:39;0.38;;;0.30;;
24650;SDS011;12783;48.824;8.662;2023-11-19T02:20:07;0.45;;;0.30;;
24650;SDS011;12783;48.824;8.662;2023-11-19T02:22:37;0.40;;;0.20;;
24650;SDS011;12783;48.824;8.662;2023-11-19T02:25:06;0.30;;;0.20;;
24650;SDS011;12783;48.824;8.662;2023-11-19T02:27:52;0.35;;;0.28;;
24650;SDS011;12783;48.824;8.662;2023-11-19T02:30:23;0.10;;;0.10;;
24650;SDS011;12783;48.824;8.662;2023-11-19T02:32:57;0.10;;;0.10;;
24650;SDS011;12783;48.824;8.662;2023-11-19T02:35:28;0.00;;;0.00;;
24650;SDS011;12783;48.824;8.662;2023-11-19T02:37:57;0.30;;;0.20;;
24650;SDS011;12783;48.824;8.662;2023-11-19T02:40:30;1.00;;;0.10;;
24650;SDS011;12783;48.824;8.662;2023-11-19T02:42:57;0.00;;;0.00;;
24650;SDS011;12783;48.824;8.662;2023-11-19T02:45:24;0.00;;;0.00;;
24650;SDS011;12783;48.824;8.662;2023-11-19T02:47:52;0.10;;;0.10;;
24650;SDS011;12783;48.824;8.662;2023-11-19T02:50:21;0.00;;;0.00;;
24650;SDS011;12783;48.824;8.662;2023-11-19T02:52:54;0.10;;;0.10;;
24650;SDS011;12783;48.824;8.662;2023-11-19T02:55:23;0.00;;;0.00;;
24650;SDS011;12783;48.824;8.662;2023-11-19T02:57:51;0.08;;;0.08;;
24650;SDS011;12783;48.824;8.662;2023-11-19T03:00:21;0.03;;;0.03;;
24650;SDS011;12783;48.824;8.662;2023-11-19T03:02:58;0.00;;;0.00;;
24650;SDS011;12783;48.824;8.662;2023-11-19T03:05:26;0.10;;;0.10;;
24650;SDS011;12783;48.824;8.662;2023-11-19T03:07:56;0.00;;;0.00;;
24650;SDS011;12783;48.824;8.662;2023-11-19T03:10:23;0.22;;;0.10;;
24650;SDS011;12783;48.824;8.662;2023-11-19T03:12:50;0.20;;;0.10;;
24650;SDS011;12783;48.824;8.662;2023-11-19T03:15:17;0.00;;;0.00;;
24650;SDS011;12783;48.824;8.662;2023-11-19T03:17:44;0.10;;;0.10;;
24650;SDS011;12783;48.824;8.662;2023-11-19T03:20:11;0.10;;;0.10;;
24650;SDS011;12783;48.824;8.662;2023-11-19T03:22:43;0.28;;;0.10;;
24650;SDS011;12783;48.824;8.662;2023-11-19T03:25:10;0.10;;;0.10;;
24650;SDS011;12783;48.824;8.662;2023-11-19T03:27:37;0.47;;;0.15;;
24650;SDS011;12783;48.824;8.662;2023-11-19T03:30:05;0.03;;;0.03;;
24650;SDS011;12783;48.824;8.662;2023-11-19T03:32:33;1.45;;;0.10;;
24650;SDS011;12783;48.824;8.662;2023-11-19T03:35:02;0.10;;;0.10;;
24650;SDS011;12783;48.824;8.662;2023-11-19T03:37:30;0.00;;;0.00;;
24650;SDS011;12783;48.824;8.662;2023-11-19T03:39:58;0.05;;;0.03;;
24650;SDS011;12783;48.824;8.662;2023-11-19T03:42:28;0.08;;;0.08;;
24650;SDS011;12783;48.824;8.662;2023-11-19T03:44:56;0.00;;;0.00;;
24650;SDS011;12783;48.824;8.662;2023-11-19T03:47:24;0.32;;;0.10;;
24650;SDS011;12783;48.824;8.662;2023-11-19T03:49:51;0.20;;;0.10;;
24650;SDS011;12783;48.824;8.662;2023-11-19T03:52:18;0.55;;;0.17;;
24650;SDS011;12783;48.824;8.662;2023-11-19T03:54:46;0.00;;;0.00;;
24650;SDS011;12783;48.824;8.662;2023-11-19T03:57:13;0.32;;;0.10;;
24650;SDS011;12783;48.824;8.662;2023-11-19T03:59:41;1.10;;;0.17;;
24650;SDS011;12783;48.824;8.662;2023-11-19T04:02:08;0.13;;;0.13;;
24650;SDS011;12783;48.824;8.662;2023-11-19T04:04:36;0.20;;;0.20;;
24650;SDS011;12783;48.824;8.662;2023-11-19T04:07:05;0.10;;;0.10;;
24650;SDS011;12783;48.824;8.662;2023-11-19T04:09:32;0.20;;;0.20;;
24650;SDS011;12783;48.824;8.662;2023-11-19T04:11:59;0.40;;;0.22;;
24650;SDS011;12783;48.824;8.662;2023-11-19T04:14:27;4.15;;;0.30;;
24650;SDS011;12783;48.824;8.662;2023-11-19T04:16:56;0.20;;;0.20;;
24650;SDS011;12783;48.824;8.662;2023-11-19T04:19:24;0.10;;;0.10;;
24650;SDS011;12783;48.824;8.662;2023-11-19T04:21:50;0.20;;;0.20;;
24650;SDS011;12783;48.824;8.662;2023-11-19T04:24:18;0.03;;;0.03;;
24650;SDS011;12783;48.824;8.662;2023-11-19T04:26:45;0.15;;;0.15;;
24650;SDS011;12783;48.824;8.662;2023-11-19T04:29:13;1.55;;;0.10;;
24650;SDS011;12783;48.824;8.662;2023-11-19T04:31:43;2.25;;;0.20;;
24650;SDS011;12783;48.824;8.662;2023-11-19T04:34:11;0.10;;;0.10;;
24650;SDS011;12783;48.824;8.662;2023-11-19T04:36:38;1.33;;;0.20;;
24650;SDS011;12783;48.824;8.662;2023-11-19T04:39:05;0.28;;;0.17;;
24650;SDS011;12783;48.824;8.662;2023-11-19T04:41:35;0.60;;;0.30;;
24650;SDS011;12783;48.824;8.662;2023-11-19T04:44:02;0.40;;;0.30;;
24650;SDS011;12783;48.824;8.662;2023-11-19T04:46:29;0.28;;;0.28;;
24650;SDS011;12783;48.824;8.662;2023-11-19T04:48:57;0.90;;;0.30;;
24650;SDS011;12783;48.824;8.662;2023-11-19T04:51:23;0.20;;;0.20;;
24650;SDS011;12783;48.824;8.662;2023-11-19T04:53:50;0.30;;;0.30;;
24650;SDS011;12783;48.824;8.662;2023-11-19T04:56:17;0.30;;;0.30;;
24650;SDS011;12783;48.824;8.662;2023-11-19T04:58:47;2.08;;;0.43;;
24650;SDS011;12783;48.824;8.662;2023-11-19T05:01:14;0.50;;;0.35;;
24650;SDS011;12783;48.824;8.662;2023-11-19T05:03:44;1.02;;;0.60;;
24650;SDS011;12783;48.824;8.662;2023-11-19T05:06:12;2.50;;;0.50;;
24650;SDS011;12783;48.824;8.662;2023-11-19T05:08:39;0.35;;;0.32;;
24650;SDS011;12783;48.824;8.662;2023-11-19T05:11:06;0.68;;;0.35;;
24650;SDS011;12783;48.824;8.662;2023-11-19T05:13:33;0.43;;;0.43;;
24650;SDS011;12783;48.824;8.662;2023-11-19T05:16:00;0.77;;;0.40;;
24650;SDS011;12783;48.824;8.662;2023-11-19T05:18:27;2.08;;;0.90;;
24650;SDS011;12783;48.824;8.662;2023-11-19T05:20:54;0.88;;;0.73;;
24650;SDS011;12783;48.824;8.662;2023-11-19T05:23:21;2.28;;;0.77;;
24650;SDS011;12783;48.824;8.662;2023-11-19T05:25:47;1.85;;;0.60;;
24650;SDS011;12783;48.824;8.662;2023-11-19T05:28:14;3.70;;;0.70;;
24650;SDS011;12783;48.824;8.662;2023-11-19T05:30:41;1.75;;;0.70;;
24650;SDS011;12783;48.824;8.662;2023-11-19T05:33:08;0.82;;;0.55;;
24650;SDS011;12783;48.824;8.662;2023-11-19T05:35:35;0.40;;;0.40;;
24650;SDS011;12783;48.824;8.662;2023-11-19T05:38:02;0.95;;;0.70;;
24650;SDS011;12783;48.824;8.662;2023-11-19T05:40:29;2.30;;;0.40;;
24650;SDS011;12783;48.824;8.662;2023-11-19T05:42:57;0.52;;;0.30;;
24650;SDS011;12783;48.824;8.662;2023-11-19T05:45:24;1.80;;;0.70;;
24650;SDS011;12783;48.824;8.662;2023-11-19T05:47:51;0.65;;;0.50;;
24650;SDS011;12783;48.824;8.662;2023-11-19T05:50:18;5.57;;;0.60;;
24650;SDS011;12783;48.824;8.662;2023-11-19T05:52:46;0.35;;;0.35;;
24650;SDS011;12783;48.824;8.662;2023-11-19T05:55:12;0.30;;;0.30;;
24650;SDS011;12783;48.824;8.662;2023-11-19T05:57:40;1.13;;;0.40;;
24650;SDS011;12783;48.824;8.662;2023-11-19T06:00:10;0.30;;;0.30;;
24650;SDS011;12783;48.824;8.662;2023-11-19T06:02:39;0.30;;;0.30;;
24650;SDS011;12783;48.824;8.662;2023-11-19T06:05:06;0.50;;;0.40;;
24650;SDS011;12783;48.824;8.662;2023-11-19T06:07:34;0.60;;;0.25;;
24650;SDS011;12783;48.824;8.662;2023-11-19T06:10:02;0.77;;;0.32;;
24650;SDS011;12783;48.824;8.662;2023-11-19T06:12:31;1.38;;;0.40;;
24650;SDS011;12783;48.824;8.662;2023-11-19T06:14:59;0.20;;;0.20;;
24650;SDS011;12783;48.824;8.662;2023-11-19T06:17:27;1.00;;;0.30;;
24650;SDS011;12783;48.824;8.662;2023-11-19T06:19:54;1.42;;;0.40;;
24650;SDS011;12783;48.824;8.662;2023-11-19T06:22:21;0.20;;;0.20;;
24650;SDS011;12783;48.824;8.662;2023-11-19T06:24:48;0.30;;;0.30;;
24650;SDS011;12783;48.824;8.662;2023-11-19T06:27:15;0.25;;;0.20;;
24650;SDS011;12783;48.824;8.662;2023-11-19T06:29:42;0.50;;;0.20;;
24650;SDS011;12783;48.824;8.662;2023-11-19T06:32:09;0.75;;;0.30;;
24650;SDS011;12783;48.824;8.662;2023-11-19T06:34:39;0.30;;;0.30;;
24650;SDS011;12783;48.824;8.662;2023-11-19T06:37:07;0.38;;;0.38;;
24650;SDS011;12783;48.824;8.662;2023-11-19T06:39:35;3.50;;;0.40;;
24650;SDS011;12783;48.824;8.662;2023-11-19T06:42:03;2.75;;;0.50;;
24650;SDS011;12783;48.824;8.662;2023-11-19T06:44:30;2.90;;;0.35;;
24650;SDS011;12783;48.824;8.662;2023-11-19T06:46:56;2.58;;;0.47;;
24650;SDS011;12783;48.824;8.662;2023-11-19T06:49:23;3.45;;;1.85;;
24650;SDS011;12783;48.824;8.662;2023-11-19T06:51:51;2.63;;;1.10;;
24650;SDS011;12783;48.824;8.662;2023-11-19T06:54:18;1.33;;;0.35;;
24650;SDS011;12783;48.824;8.662;2023-11-19T06:56:44;0.60;;;0.35;;
24650;SDS011;12783;48.824;8.662;2023-11-19T06:59:13;2.13;;;0.40;;
24650;SDS011;12783;48.824;8.662;2023-11-19T07:01:40;1.95;;;0.40;;
24650;SDS011;12783;48.824;8.662;2023-11-19T07:04:10;0.60;;;0.40;;
24650;SDS011;12783;48.824;8.662;2023-11-19T07:06:38;1.83;;;0.40;;
24650;SDS011;12783;48.824;8.662;2023-11-19T07:09:07;2.75;;;0.40;;
24650;SDS011;12783;48.824;8.662;2023-11-19T07:11:38;2.67;;;0.50;;
24650;SDS011;12783;48.824;8.662;2023-11-19T07:14:07;1.17;;;0.40;;
24650;SDS011;12783;48.824;8.662;2023-11-19T07:16:35;0.65;;;0.40;;
24650;SDS011;12783;48.824;8.662;2023-11-19T07:19:05;0.90;;;0.30;;
24650;SDS011;12783;48.824;8.662;2023-11-19T07:21:33;0.63;;;0.40;;
24650;SDS011;12783;48.824;8.662;2023-11-19T07:24:00;1.05;;;0.40;;
24650;SDS011;12783;48.824;8.662;2023-11-19T07:26:26;1.25;;;0.30;;
24650;SDS011;12783;48.824;8.662;2023-11-19T07:28:54;1.27;;;0.50;;
24650;SDS011;12783;48.824;8.662;2023-11-19T07:31:21;1.05;;;0.30;;
24650;SDS011;12783;48.824;8.662;2023-11-19T07:33:50;1.45;;;0.30;;
24650;SDS011;12783;48.824;8.662;2023-11-19T07:36:17;0.93;;;0.47;;
24650;SDS011;12783;48.824;8.662;2023-11-19T07:38:45;1.67;;;1.00;;
24650;SDS011;12783;48.824;8.662;2023-11-19T07:41:12;0.68;;;0.43;;
24650;SDS011;12783;48.824;8.662;2023-11-19T07:43:39;1.95;;;0.50;;
24650;SDS011;12783;48.824;8.662;2023-11-19T07:46:11;0.40;;;0.40;;
24650;SDS011;12783;48.824;8.662;2023-11-19T07:48:39;2.35;;;0.38;;
24650;SDS011;12783;48.824;8.662;2023-11-19T07:51:07;2.58;;;0.47;;
24650;SDS011;12783;48.824;8.662;2023-11-19T07:53:35;1.75;;;0.22;;
24650;SDS011;12783;48.824;8.662;2023-11-19T07:56:04;2.72;;;0.40;;
24650;SDS011;12783;48.824;8.662;2023-11-19T07:58:32;2.92;;;1.02;;
24650;SDS011;12783;48.824;8.662;2023-11-19T08:00:59;1.17;;;0.47;;
24650;SDS011;12783;48.824;8.662;2023-11-19T08:03:28;3.33;;;0.50;;
24650;SDS011;12783;48.824;8.662;2023-11-19T08:05:56;1.33;;;0.40;;
24650;SDS011;12783;48.824;8.662;2023-11-19T08:08:23;1.27;;;0.30;;
24650;SDS011;12783;48.824;8.662;2023-11-19T08:10:50;1.30;;;0.38;;
24650;SDS011;12783;48.824;8.662;2023-11-19T08:13:18;0.55;;;0.55;;
24650;SDS011;12783;48.824;8.662;2023-11-19T08:15:47;0.45;;;0.20;;
24650;SDS011;12783;48.824;8.662;2023-11-19T08:18:14;2.45;;;0.40;;
24650;SDS011;12783;48.824;8.662;2023-11-19T08:20:40;1.40;;;0.43;;
24650;SDS011;12783;48.824;8.662;2023-11-19T08:23:09;1.38;;;0.50;;
24650;SDS011;12783;48.824;8.662;2023-11-19T08:25:35;1.85;;;0.50;;
24650;SDS011;12783;48.824;8.662;2023-11-19T08:28:02;0.85;;;0.40;;
24650;SDS011;12783;48.824;8.662;2023-11-19T08:30:30;1.92;;;0.40;;
24650;SDS011;12783;48.824;8.662;2023-11-19T08:32:56;0.45;;;0.32;;
24650;SDS011;12783;48.824;8.662;2023-11-19T08:35:25;1.08;;;0.43;;
24650;SDS011;12783;48.824;8.662;2023-11-19T08:37:52;1.17;;;0.40;;
24650;SDS011;12783;48.824;8.662;2023-11-19T08:40:19;3.35;;;1.08;;
24650;SDS011;12783;48.824;8.662;2023-11-19T08:42:46;0.68;;;0.40;;
24650;SDS011;12783;48.824;8.662;2023-11-19T08:45:13;1.25;;;0.30;;
24650;SDS011;12783;48.824;8.662;2023-11-19T08:47:40;3.35;;;0.50;;
24650;SDS011;12783;48.824;8.662;2023-11-19T08:50:07;1.25;;;0.57;;
24650;SDS011;12783;48.824;8.662;2023-11-19T08:52:35;0.45;;;0.30;;
24650;SDS011;12783;48.824;8.662;2023-11-19T08:55:02;2.22;;;0.60;;
24650;SDS011;12783;48.824;8.662;2023-11-19T08:57:31;3.03;;;0.40;;
24650;SDS011;12783;48.824;8.662;2023-11-19T09:00:01;2.20;;;0.45;;
24650;SDS011;12783;48.824;8.662;2023-11-19T09:02:36;1.48;;;0.40;;
24650;SDS011;12783;48.824;8.662;2023-11-19T09:05:04;2.85;;;0.40;;
24650;SDS011;12783;48.824;8.662;2023-11-19T09:07:34;0.65;;;0.35;;
24650;SDS011;12783;48.824;8.662;2023-11-19T09:10:01;1.83;;;0.50;;
24650;SDS011;12783;48.824;8.662;2023-11-19T09:12:31;3.13;;;0.40;;
24650;SDS011;12783;48.824;8.662;2023-11-19T09:14:57;2.22;;;0.40;;
24650;SDS011;12783;48.824;8.662;2023-11-19T09:17:24;1.08;;;0.47;;
24650;SDS011;12783;48.824;8.662;2023-11-19T09:19:52;1.17;;;0.60;;
24650;SDS011;12783;48.824;8.662;2023-11-19T09:22:19;3.10;;;0.63;;
24650;SDS011;12783;48.824;8.662;2023-11-19T09:24:45;2.47;;;0.30;;
24650;SDS011;12783;48.824;8.662;2023-11-19T09:27:13;1.98;;;0.60;;
24650;SDS011;12783;48.824;8.662;2023-11-19T09:29:40;7.32;;;0.63;;
24650;SDS011;12783;48.824;8.662;2023-11-19T09:32:09;1.45;;;0.38;;
24650;SDS011;12783;48.824;8.662;2023-11-19T09:34:36;0.98;;;0.50;;
24650;SDS011;12783;48.824;8.662;2023-11-19T09:37:03;1.63;;;0.40;;
24650;SDS011;12783;48.824;8.662;2023-11-19T09:39:46;1.58;;;0.40;;
24650;SDS011;12783;48.824;8.662;2023-11-19T09:42:13;0.93;;;0.25;;
24650;SDS011;12783;48.824;8.662;2023-11-19T09:44:40;1.33;;;0.47;;
24650;SDS011;12783;48.824;8.662;2023-11-19T09:47:10;0.85;;;0.40;;
24650;SDS011;12783;48.824;8.662;2023-11-19T09:49:40;0.75;;;0.45;;
24650;SDS011;12783;48.824;8.662;2023-11-19T09:52:07;1.95;;;0.60;;
24650;SDS011;12783;48.824;8.662;2023-11-19T09:54:34;0.40;;;0.40;;
24650;SDS011;12783;48.824;8.662;2023-11-19T09:57:01;2.22;;;0.45;;
24650;SDS011;12783;48.824;8.662;2023-11-19T09:59:31;1.77;;;0.40;;
24650;SDS011;12783;48.824;8.662;2023-11-19T10:01:59;1.60;;;0.40;;
24650;SDS011;12783;48.824;8.662;2023-11-19T10:04:28;1.67;;;0.50;;
24650;SDS011;12783;48.824;8.662;2023-11-19T10:06:56;0.93;;;0.68;;
24650;SDS011;12783;48.824;8.662;2023-11-19T10:09:23;1.10;;;0.50;;
24650;SDS011;12783;48.824;8.662;2023-11-19T10:11:50;1.40;;;0.30;;
24650;SDS011;12783;48.824;8.662;2023-11-19T10:14:19;2.25;;;0.68;;
24650;SDS011;12783;48.824;8.662;2023-11-19T10:16:50;0.80;;;0.28;;
24650;SDS011;12783;48.824;8.662;2023-11-19T10:19:20;2.10;;;0.50;;
24650;SDS011;12783;48.824;8.662;2023-11-19T10:21:47;0.55;;;0.20;;
24650;SDS011;12783;48.824;8.662;2023-11-19T10:24:14;0.20;;;0.20;;
24650;SDS011;12783;48.824;8.662;2023-11-19T10:26:56;1.25;;;0.80;;
24650;SDS011;12783;48.824;8.662;2023-11-19T10:29:23;0.68;;;0.40;;
24650;SDS011;12783;48.824;8.662;2023-11-19T10:31:57;3.65;;;0.60;;
24650;SDS011;12783;48.824;8.662;2023-11-19T10:34:45;2.38;;;0.52;;
24650;SDS011;12783;48.824;8.662;2023-11-19T10:37:28;2.83;;;0.50;;
24650;SDS011;12783;48.824;8.662;2023-11-19T10:39:59;2.58;;;0.40;;
24650;SDS011;12783;48.824;8.662;2023-11-19T10:42:26;2.15;;;0.65;;
24650;SDS011;12783;48.824;8.662;2023-11-19T10:44:54;2.92;;;0.50;;
24650;SDS011;12783;48.824;8.662;2023-11-19T10:47:20;1.15;;;0.47;;
24650;SDS011;12783;48.824;8.662;2023-11-19T10:49:52;1.55;;;0.50;;
24650;SDS011;12783;48.824;8.662;2023-11-19T10:52:19;1.52;;;0.40;;
24650;SDS011;12783;48.824;8.662;2023-11-19T10:54:50;0.98;;;0.75;;
24650;SDS011;12783;48.824;8.662;2023-11-19T10:57:20;2.00;;;0.60;;
24650;SDS011;12783;48.824;8.662;2023-11-19T10:59:49;2.42;;;0.50;;
24650;SDS011;12783;48.824;8.662;2023-11-19T11:02:22;1.15;;;0.40;;
24650;SDS011;12783;48.824;8.662;2023-11-19T11:04:52;5.88;;;0.60;;
24650;SDS011;12783;48.824;8.662;2023-11-19T11:07:21;3.13;;;0.60;;
24650;SDS011;12783;48.824;8.662;2023-11-19T11:10:05;2.33;;;0.88;;
24650;SDS011;12783;48.824;8.662;2023-11-19T11:12:37;1.92;;;0.80;;
24650;SDS011;12783;48.824;8.662;2023-11-19T11:15:06;4.95;;;0.80;;
24650;SDS011;12783;48.824;8.662;2023-11-19T11:17:34;2.25;;;0.80;;
24650;SDS011;12783;48.824;8.662;2023-11-19T11:20:03;1.90;;;0.70;;
24650;SDS011;12783;48.824;8.662;2023-11-19T11:22:33;1.67;;;0.68;;
24650;SDS011;12783;48.824;8.662;2023-11-19T11:25:41;2.90;;;0.63;;
24650;SDS011;12783;48.824;8.662;2023-11-19T11:35:07;2.83;;;0.60;;
24650;SDS011;12783;48.824;8.662;2023-11-19T11:37:53;1.75;;;0.60;;
24650;SDS011;12783;48.824;8.662;2023-11-19T11:40:28;5.97;;;0.57;;
24650;SDS011;12783;48.824;8.662;2023-11-19T11:42:55;1.58;;;0.50;;
24650;SDS011;12783;48.824;8.662;2023-11-19T11:45:40;2.92;;;0.55;;
24650;SDS011;12783;48.824;8.662;2023-11-19T11:48:19;4.30;;;0.50;;
24650;SDS011;12783;48.824;8.662;2023-11-19T11:50:49;2.17;;;0.80;;
24650;SDS011;12783;48.824;8.662;2023-11-19T11:53:20;1.02;;;0.65;;
24650;SDS011;12783;48.824;8.662;2023-11-19T11:58:21;1.10;;;0.40;;
24650;SDS011;12783;48.824;8.662;2023-11-19T12:00:52;3.65;;;0.50;;
24650;SDS011;12783;48.824;8.662;2023-11-19T12:03:21;1.13;;;0.40;;
24650;SDS011;12783;48.824;8.662;2023-11-19T12:05:48;1.83;;;0.50;;
24650;SDS011;12783;48.824;8.662;2023-11-19T12:08:18;1.23;;;0.38;;
24650;SDS011;12783;48.824;8.662;2023-11-19T12:10:52;1.25;;;0.40;;
24650;SDS011;12783;48.824;8.662;2023-11-19T12:13:24;1.55;;;0.63;;
24650;SDS011;12783;48.824;8.662;2023-11-19T12:16:09;2.30;;;0.50;;
24650;SDS011;12783;48.824;8.662;2023-11-19T12:18:38;1.13;;;0.30;;
24650;SDS011;12783;48.824;8.662;2023-11-19T12:21:07;1.55;;;0.50;;
24650;SDS011;12783;48.824;8.662;2023-11-19T12:23:43;1.75;;;0.57;;
24650;SDS011;12783;48.824;8.662;2023-11-19T12:26:31;2.28;;;0.57;;
24650;SDS011;12783;48.824;8.662;2023-11-19T12:29:00;2.45;;;0.45;;
24650;SDS011;12783;48.824;8.662;2023-11-19T12:31:34;0.50;;;0.30;;
24650;SDS011;12783;48.824;8.662;2023-11-19T12:34:05;0.80;;;0.50;;
24650;SDS011;12783;48.824;8.662;2023-11-19T12:36:33;3.15;;;0.73;;
24650;SDS011;12783;48.824;8.662;2023-11-19T12:39:01;1.73;;;0.45;;
24650;SDS011;12783;48.824;8.662;2023-11-19T12:41:28;2.05;;;0.20;;
24650;SDS011;12783;48.824;8.662;2023-11-19T12:44:08;0.80;;;0.35;;
24650;SDS011;12783;48.824;8.662;2023-11-19T12:46:37;1.65;;;0.40;;
24650;SDS011;12783;48.824;8.662;2023-11-19T12:49:04;1.05;;;0.43;;
24650;SDS011;12783;48.824;8.662;2023-11-19T12:51:32;3.13;;;0.60;;
24650;SDS011;12783;48.824;8.662;2023-11-19T12:54:00;0.52;;;0.32;;
24650;SDS011;12783;48.824;8.662;2023-11-19T12:56:27;1.42;;;0.57;;
24650;SDS011;12783;48.824;8.662;2023-11-19T12:58:56;2.15;;;0.63;;
24650;SDS011;12783;48.824;8.662;2023-11-19T13:01:22;2.55;;;0.60;;
24650;SDS011;12783;48.824;8.662;2023-11-19T13:03:50;0.35;;;0.35;;
24650;SDS011;12783;48.824;8.662;2023-11-19T13:06:18;2.13;;;0.68;;
24650;SDS011;12783;48.824;8.662;2023-11-19T13:08:48;0.77;;;0.22;;
24650;SDS011;12783;48.824;8.662;2023-11-19T13:11:32;1.27;;;0.63;;
24650;SDS011;12783;48.824;8.662;2023-11-19T13:14:03;1.33;;;0.52;;
24650;SDS011;12783;48.824;8.662;2023-11-19T13:16:31;3.60;;;0.82;;
24650;SDS011;12783;48.824;8.662;2023-11-19T13:18:59;4.57;;;0.68;;
24650;SDS011;12783;48.824;8.662;2023-11-19T13:21:27;1.42;;;0.40;;
24650;SDS011;12783;48.824;8.662;2023-11-19T13:23:54;2.95;;;0.77;;
24650;SDS011;12783;48.824;8.662;2023-11-19T13:26:21;4.60;;;0.70;;
24650;SDS011;12783;48.824;8.662;2023-11-19T13:28:49;2.38;;;0.68;;
24650;SDS011;12783;48.824;8.662;2023-11-19T13:31:16;4.57;;;0.70;;
24650;SDS011;12783;48.824;8.662;2023-11-19T13:33:43;1.92;;;0.57;;
24650;SDS011;12783;48.824;8.662;2023-11-19T13:36:11;4.43;;;0.57;;
24650;SDS011;12783;48.824;8.662;2023-11-19T13:38:42;0.85;;;0.40;;
24650;SDS011;12783;48.824;8.662;2023-11-19T13:41:10;3.38;;;0.75;;
24650;SDS011;12783;48.824;8.662;2023-11-19T13:43:39;1.35;;;0.60;;
24650;SDS011;12783;48.824;8.662;2023-11-19T13:46:06;0.88;;;0.50;;
24650;SDS011;12783;48.824;8.662;2023-11-19T13:48:36;1.42;;;0.60;;
24650;SDS011;12783;48.824;8.662;2023-11-19T13:51:03;3.03;;;0.52;;
24650;SDS011;12783;48.824;8.662;2023-11-19T13:53:31;1.50;;;0.38;;
24650;SDS011;12783;48.824;8.662;2023-11-19T13:56:17;0.95;;;0.77;;
24650;SDS011;12783;48.824;8.662;2023-11-19T13:58:44;0.98;;;0.30;;
24650;SDS011;12783;48.824;8.662;2023-11-19T14:01:11;2.53;;;0.65;;
24650;SDS011;12783;48.824;8.662;2023-11-19T14:03:40;2.97;;;0.60;;
24650;SDS011;12783;48.824;8.662;2023-11-19T14:06:08;2.15;;;0.60;;
24650;SDS011;12783;48.824;8.662;2023-11-19T14:08:36;0.70;;;0.50;;
24650;SDS011;12783;48.824;8.662;2023-11-19T14:11:04;2.30;;;0.70;;
24650;SDS011;12783;48.824;8.662;2023-11-19T14:13:31;1.85;;;0.77;;
24650;SDS011;12783;48.824;8.662;2023-11-19T14:15:58;2.90;;;0.55;;
24650;SDS011;12783;48.824;8.662;2023-11-19T14:18:26;2.85;;;0.88;;
24650;SDS011;12783;48.824;8.662;2023-11-19T14:20:52;3.22;;;0.73;;
24650;SDS011;12783;48.824;8.662;2023-11-19T14:23:19;1.83;;;0.60;;
24650;SDS011;12783;48.824;8.662;2023-11-19T14:25:46;2.08;;;0.60;;
24650;SDS011;12783;48.824;8.662;2023-11-19T14:28:13;0.98;;;0.50;;
24650;SDS011;12783;48.824;8.662;2023-11-19T14:30:41;3.03;;;0.77;;
24650;SDS011;12783;48.824;8.662;2023-11-19T14:33:08;1.45;;;0.60;;
24650;SDS011;12783;48.824;8.662;2023-11-19T14:35:35;0.95;;;0.55;;
24650;SDS011;12783;48.824;8.662;2023-11-19T14:38:02;0.57;;;0.47;;
24650;SDS011;12783;48.824;8.662;2023-11-19T14:40:31;2.97;;;0.60;;
24650;SDS011;12783;48.824;8.662;2023-11-19T14:43:01;1.67;;;0.40;;
24650;SDS011;12783;48.824;8.662;2023-11-19T14:45:28;1.80;;;0.55;;
24650;SDS011;12783;48.824;8.662;2023-11-19T14:48:04;1.55;;;0.35;;
24650;SDS011;12783;48.824;8.662;2023-11-19T14:50:32;1.75;;;0.52;;
24650;SDS011;12783;48.824;8.662;2023-11-19T14:52:59;3.95;;;0.70;;
24650;SDS011;12783;48.824;8.662;2023-11-19T14:55:26;0.70;;;0.38;;
24650;SDS011;12783;48.824;8.662;2023-11-19T14:57:53;0.55;;;0.45;;
24650;SDS011;12783;48.824;8.662;2023-11-19T15:00:33;1.90;;;0.80;;
24650;SDS011;12783;48.824;8.662;2023-11-19T15:03:00;2.35;;;0.50;;
24650;SDS011;12783;48.824;8.662;2023-11-19T15:05:27;2.30;;;0.45;;
24650;SDS011;12783;48.824;8.662;2023-11-19T15:07:56;2.15;;;0.70;;